Date,TemperatureHighF,TemperatureAvgF,TemperatureLowF,DewpointHighF,DewpointAvgF,DewpointLowF,HumidityHigh,HumidityAvg,HumidityLow,PressureMaxIn,PressureMinIn,WindSpeedMaxMPH,WindSpeedAvgMPH,GustSpeedMaxMPH,PrecipitationSumIn
2014-1-12,45.4,43.4,41.1,29.8,29.0,28.1,64,57,53,29.55,29.51,19,14,48,0.02
2014-1-16,40.4,35.5,30.6,36.4,33.9,29.9,98,94,83,29.85,29.77,3,0,18,0.00
2014-1-17,43.8,36.2,29.1,36.4,28.1,20.5,97,75,42,29.91,29.82,7,2,27,0.00
2014-1-18,33.7,32.2,29.0,32.7,30.6,25.3,97,94,86,29.84,29.55,2,0,17,0.01
2014-1-19,33.4,30.2,27.1,30.9,24.5,19.7,96,80,65,29.66,29.48,11,3,34,0.00
2014-1-20,40.7,33.8,25.8,30.2,22.7,8.8,80,64,48,29.80,29.44,17,4,56,0.01
2014-1-21,24.5,14.8,9.3,7.6,2.6,-4.4,82,60,39,29.97,29.80,15,4,42,0.00
2014-1-22,14.8,9.3,6.2,4.4,-3.9,-7.2,80,55,42,29.78,29.58,15,9,40,0.00
2014-1-30,30.1,18.8,6.3,11.5,2.2,-5.5,72,50,29,30.36,30.13,19,10,19,0.00
2014-1-31,40.3,31.3,18.1,22.3,16.0,6.1,83,56,32,30.12,29.94,43,12,43,0.00
2014-2-1,46.3,35.8,28.1,29.7,22.9,19.0,86,61,38,30.25,29.96,36,8,36,0.00
2014-2-2,54.3,41.5,32.8,41.1,34.9,29.4,95,79,51,29.97,29.79,33,10,33,0.00
2014-2-3,38.4,31.2,20.7,31.5,26.0,18.0,90,82,59,30.21,29.98,32,10,32,0.00
2014-2-4,34.8,24.4,12.5,22.7,17.4,9.4,89,76,53,30.38,30.20,17,3,17,0.04
2014-2-5,30.7,26.4,24.7,28.4,23.4,21.1,93,88,81,30.21,29.55,24,6,28,0.00
2014-2-9,30.6,25.4,19.5,20.0,13.1,2.8,87,60,42,30.08,29.88,26,14,26,0.02
2014-2-10,28.6,20.1,9.7,19.7,9.8,2.2,87,66,42,30.13,29.82,43,16,43,0.00
2014-2-11,25.5,14.1,4.9,4.7,1.6,-1.2,83,59,34,30.35,30.13,37,12,37,0.00
2014-2-12,27.0,13.4,-3.8,5.1,-2.7,-9.6,76,52,25,30.48,30.34,32,8,32,0.00
2014-2-13,32.8,25.3,13.8,31.8,21.9,5.5,96,87,69,30.33,28.96,46,19,46,0.00
2014-2-14,34.6,31.5,25.7,31.9,26.6,21.3,97,83,68,29.66,28.77,52,24,52,0.00
2014-2-15,34.4,27.6,20.6,28.4,24.4,18.1,93,88,65,29.77,29.42,28,8,31,0.00
2014-9-28,87.0,68.1,53.6,66.4,60.0,52.7,98,78,43,30.11,29.94,0,0,0,0.00
2014-9-29,75.5,64.0,56.5,62.8,59.3,55.1,97,86,57,29.97,29.88,13,3,13,0.00
2014-9-30,57.2,56.1,55.4,55.8,54.9,54.3,97,96,92,29.99,29.94,5,5,5,0.04
2014-10-1,57.3,56.3,55.7,56.5,55.5,54.8,99,97,96,30.06,29.96,5,5,5,0.59
2014-10-2,56.1,55.0,54.7,55.0,53.2,51.8,98,94,89,30.12,30.04,5,5,5,0.44
2014-10-3,57.9,56.1,54.7,51.8,50.9,49.0,90,83,73,30.07,29.82,5,5,5,0.00
2014-10-4,62.0,58.6,56.7,58.8,53.9,50.9,91,85,81,29.80,29.54,6,4,23,21.85
2014-10-6,68.2,51.1,37.9,50.5,42.8,36.6,97,76,44,30.09,29.91,26,3,26,0.00
2014-10-7,48.8,48.8,48.8,46.6,46.6,46.6,92,92,92,30.09,30.09,0,0,0,0.00
2014-10-12,61.6,53.3,43.1,46.3,41.6,38.0,91,67,44,30.25,30.18,10,0,15,0.00
2014-10-14,76.4,70.1,63.3,63.7,61.8,60.3,95,76,60,30.18,30.11,22,7,22,0.00
2014-10-15,77.8,68.0,59.2,66.9,63.7,58.3,99,87,63,30.11,29.93,33,9,33,0.00
2014-10-16,70.9,68.1,60.6,70.0,66.8,59.7,98,96,91,29.91,29.63,44,20,44,0.96
2014-10-17,67.9,60.4,56.0,59.6,58.0,55.1,99,92,65,29.64,29.57,15,2,15,0.00
2014-10-28,37.8,37.8,37.8,36.5,36.5,36.5,95,95,95,29.99,29.99,0,0,0,0.00
2014-11-1,43.5,40.7,38.2,42.4,39.0,35.8,96,93,76,29.82,29.72,30,7,41,0.48
2014-11-2,39.5,38.6,37.9,36.3,31.7,29.1,93,76,67,29.77,29.58,47,20,49,0.00
2014-11-9,55.7,43.8,34.1,36.3,33.6,30.1,88,69,44,29.95,29.82,21,5,21,0.00
2014-11-10,60.1,43.0,29.3,38.0,32.1,27.8,97,70,35,30.15,29.96,10,1,10,0.00
2014-11-11,62.5,48.1,32.8,54.0,44.0,31.0,97,86,65,30.15,29.91,27,6,27,0.00
2014-11-12,63.7,53.7,40.7,54.7,49.1,31.7,99,86,60,29.95,29.79,38,10,38,0.00
2014-11-13,49.7,41.3,29.5,35.7,28.6,25.2,91,63,39,30.02,29.90,25,9,25,0.10
2014-11-14,42.2,34.7,28.4,33.4,27.0,18.7,97,76,43,30.05,29.84,40,13,40,0.18
2014-11-15,36.0,25.4,21.7,21.8,20.2,17.6,90,82,48,30.19,30.05,8,1,27,0.00
2014-11-29,33.8,31.6,25.0,17.4,16.0,13.4,67,52,47,30.28,30.23,8,1,12,0.09